createdAt,value
2023-07-09T00:01:30.567Z,4.30
2023-07-09T00:03:58.735Z,4.60
2023-07-09T00:06:26.910Z,4.15
2023-07-09T00:08:55.030Z,4.30
2023-07-09T00:11:23.225Z,4.15
2023-07-09T00:13:51.417Z,3.70
2023-07-09T00:16:25.370Z,4.00
2023-07-09T00:18:54.906Z,4.35
2023-07-09T00:21:25.154Z,4.22
2023-07-09T00:23:53.570Z,3.90
2023-07-09T00:26:28.436Z,4.85
2023-07-09T00:28:56.507Z,4.25
2023-07-09T00:31:24.798Z,3.90
2023-07-09T00:33:57.007Z,3.90
2023-07-09T00:36:30.055Z,4.30
2023-07-09T00:39:00.350Z,3.97
2023-07-09T00:41:29.465Z,4.38
2023-07-09T00:43:58.222Z,4.13
2023-07-09T00:47:03.956Z,4.60
2023-07-09T00:49:36.613Z,4.40
2023-07-09T00:52:14.874Z,3.92
2023-07-09T00:54:47.923Z,3.97
2023-07-09T00:57:19.517Z,5.28
2023-07-09T00:59:50.652Z,4.70
2023-07-09T01:02:25.420Z,4.00
2023-07-09T01:04:57.668Z,4.05
2023-07-09T01:07:26.173Z,4.85
2023-07-09T01:09:54.639Z,4.75
2023-07-09T01:12:24.341Z,4.38
2023-07-09T01:14:55.301Z,4.10
2023-07-09T01:17:23.574Z,4.70
2023-07-09T01:19:53.954Z,4.13
2023-07-09T01:22:24.815Z,4.28
2023-07-09T01:24:56.001Z,4.03
2023-07-09T01:27:27.641Z,4.40
2023-07-09T01:29:57.488Z,4.07
2023-07-09T01:32:26.195Z,4.75
2023-07-09T01:34:56.427Z,4.43
2023-07-09T01:37:28.336Z,4.78
2023-07-09T01:39:57.055Z,4.65
2023-07-09T01:42:26.758Z,4.53
2023-07-09T01:44:56.422Z,4.20
2023-07-09T01:47:25.871Z,4.40
2023-07-09T01:49:58.633Z,4.15
2023-07-09T01:52:31.808Z,4.60
2023-07-09T01:55:00.448Z,4.07
2023-07-09T01:57:34.182Z,4.88
2023-07-09T02:00:10.131Z,4.32
2023-07-09T02:02:39.801Z,4.72
2023-07-09T02:05:08.704Z,4.85
2023-07-09T02:07:38.168Z,4.80
2023-07-09T02:10:07.124Z,4.75
2023-07-09T02:12:35.369Z,4.25
2023-07-09T02:15:03.486Z,4.38
2023-07-09T02:17:31.636Z,4.50
2023-07-09T02:19:59.760Z,4.32
2023-07-09T02:22:28.122Z,5.00
2023-07-09T02:24:57.579Z,5.05
2023-07-09T02:27:25.657Z,5.05
2023-07-09T02:29:53.761Z,5.15
2023-07-09T02:32:24.120Z,5.30
2023-07-09T02:34:54.073Z,5.18
2023-07-09T02:37:24.141Z,4.78
2023-07-09T02:39:52.236Z,4.57
2023-07-09T02:42:23.477Z,5.10
2023-07-09T02:44:51.970Z,4.55
2023-07-09T02:47:20.846Z,4.35
2023-07-09T02:49:49.471Z,4.22
2023-07-09T02:52:17.943Z,4.50
2023-07-09T02:54:46.020Z,4.60
2023-07-09T02:57:14.135Z,4.47
2023-07-09T02:59:43.616Z,4.50
2023-07-09T03:02:13.110Z,4.50
2023-07-09T03:04:41.300Z,3.92
2023-07-09T03:07:09.515Z,4.32
2023-07-09T03:09:37.852Z,5.10
2023-07-09T03:12:06.861Z,4.55
2023-07-09T03:14:35.122Z,4.57
2023-07-09T03:17:04.858Z,4.63
2023-07-09T03:19:35.234Z,4.72
2023-07-09T03:22:05.558Z,4.28
2023-07-09T03:24:33.681Z,5.25
2023-07-09T03:27:01.749Z,4.93
2023-07-09T03:29:29.987Z,4.63
2023-07-09T03:31:58.150Z,4.95
2023-07-09T03:34:27.676Z,4.65
2023-07-09T03:36:55.749Z,4.13
2023-07-09T03:39:23.827Z,4.72
2023-07-09T03:41:51.876Z,4.63
2023-07-09T03:44:19.970Z,4.70
2023-07-09T03:46:48.130Z,4.40
2023-07-09T03:49:16.260Z,4.65
2023-07-09T03:51:45.697Z,4.70
2023-07-09T03:54:13.765Z,4.78
2023-07-09T03:56:41.831Z,4.63
2023-07-09T03:59:09.904Z,4.43
2023-07-09T04:01:38.071Z,4.88
2023-07-09T04:04:06.538Z,4.82
2023-07-09T04:06:34.645Z,5.03
2023-07-09T04:09:04.086Z,5.05
2023-07-09T04:11:32.216Z,5.10
2023-07-09T04:14:00.360Z,4.18
2023-07-09T04:16:28.543Z,4.80
2023-07-09T04:18:56.673Z,4.28
2023-07-09T04:21:24.769Z,4.60
2023-07-09T04:23:52.889Z,4.88
2023-07-09T04:26:24.619Z,4.55
2023-07-09T04:31:20.681Z,4.68
2023-07-09T04:33:48.761Z,4.50
2023-07-09T04:36:16.856Z,4.55
2023-07-09T04:38:44.928Z,4.57
2023-07-09T04:41:12.995Z,4.80
2023-07-09T04:43:42.467Z,4.95
2023-07-09T04:46:10.698Z,5.22
2023-07-09T04:48:39.785Z,5.07
2023-07-09T04:51:07.964Z,4.90
2023-07-09T04:53:36.240Z,4.80
2023-07-09T04:56:04.875Z,5.53
2023-07-09T04:58:33.302Z,4.90
2023-07-09T05:01:03.071Z,4.70
2023-07-09T05:03:31.390Z,4.75
2023-07-09T05:05:59.501Z,4.90
2023-07-09T05:08:27.657Z,5.82
2023-07-09T05:10:56.548Z,5.28
2023-07-09T05:13:24.645Z,5.43
2023-07-09T05:15:53.550Z,5.95
2023-07-09T05:18:23.409Z,4.72
2023-07-09T05:20:51.588Z,4.90
2023-07-09T05:23:19.796Z,4.75
2023-07-09T05:25:48.121Z,4.75
2023-07-09T05:28:16.186Z,5.32
2023-07-09T05:30:44.652Z,5.35
2023-07-09T05:33:12.722Z,5.55
2023-07-09T05:35:44.259Z,4.72
2023-07-09T05:38:12.415Z,4.97
2023-07-09T05:40:40.517Z,4.65
2023-07-09T05:43:08.652Z,5.15
2023-07-09T05:45:36.858Z,4.72
2023-07-09T05:48:05.354Z,4.53
2023-07-09T05:50:36.006Z,4.57
2023-07-09T05:53:05.461Z,4.22
2023-07-09T05:55:33.617Z,4.63
2023-07-09T05:58:02.102Z,4.35
2023-07-09T06:00:30.361Z,4.63
2023-07-09T06:02:58.679Z,4.13
2023-07-09T06:05:27.231Z,4.35
2023-07-09T06:07:55.583Z,4.15
2023-07-09T06:10:25.070Z,4.03
2023-07-09T06:12:53.995Z,3.90
2023-07-09T06:15:22.100Z,3.45
2023-07-09T06:17:50.252Z,4.03
2023-07-09T06:20:18.686Z,4.10
2023-07-09T06:22:46.776Z,4.18
2023-07-09T06:25:15.172Z,3.92
2023-07-09T06:27:44.824Z,3.63
2023-07-09T06:30:13.585Z,3.97
2023-07-09T06:32:41.840Z,3.53
2023-07-09T06:35:10.496Z,3.90
2023-07-09T06:37:38.561Z,3.35
2023-07-09T06:40:09.892Z,3.38
2023-07-09T06:42:38.383Z,3.25
2023-07-09T06:45:08.845Z,3.88
2023-07-09T06:47:36.956Z,3.78
2023-07-09T06:50:05.428Z,3.38
2023-07-09T06:52:33.506Z,3.05
2023-07-09T06:55:01.578Z,3.28
2023-07-09T06:57:29.648Z,3.65
2023-07-09T06:59:57.742Z,3.40
2023-07-09T07:02:27.233Z,3.13
2023-07-09T07:04:55.555Z,2.80
2023-07-09T07:07:23.652Z,3.17
2023-07-09T07:09:51.717Z,3.40
2023-07-09T07:12:27.425Z,3.28
2023-07-09T07:14:55.708Z,3.47
2023-07-09T07:17:24.441Z,3.20
2023-07-09T07:19:54.085Z,2.65
2023-07-09T07:22:22.161Z,2.90
2023-07-09T07:24:50.223Z,2.85
2023-07-09T07:27:18.339Z,2.88
2023-07-09T07:29:47.057Z,3.15
2023-07-09T07:32:15.128Z,3.00
2023-07-09T07:34:43.240Z,2.80
2023-07-09T07:37:12.902Z,3.00
2023-07-09T07:39:41.785Z,2.83
2023-07-09T07:42:10.101Z,2.63
2023-07-09T07:44:38.239Z,3.05
2023-07-09T07:47:07.342Z,3.15
2023-07-09T07:49:35.447Z,2.60
2023-07-09T07:52:04.840Z,3.25
2023-07-09T07:54:34.478Z,3.55
2023-07-09T07:57:02.656Z,3.30
2023-07-09T07:59:31.058Z,3.03
2023-07-09T08:01:59.239Z,3.17
2023-07-09T08:04:27.527Z,3.03
2023-07-09T08:06:55.684Z,3.13
2023-07-09T08:09:23.915Z,3.08
2023-07-09T08:11:53.556Z,3.28
2023-07-09T08:14:21.778Z,3.10
2023-07-09T08:16:50.628Z,3.20
2023-07-09T08:19:21.121Z,3.25
2023-07-09T08:21:49.384Z,2.77
2023-07-09T08:24:17.467Z,2.47
2023-07-09T08:26:45.600Z,3.28
2023-07-09T08:29:15.081Z,2.65
2023-07-09T08:31:44.077Z,2.60
2023-07-09T08:34:12.237Z,3.13
2023-07-09T08:36:40.405Z,2.88
2023-07-09T08:39:08.573Z,2.60
2023-07-09T08:41:43.662Z,3.45
2023-07-09T08:44:42.083Z,2.22
2023-07-09T08:47:16.179Z,3.20
2023-07-09T08:49:50.094Z,2.80
2023-07-09T08:52:35.499Z,3.08
2023-07-09T08:55:09.159Z,2.80
2023-07-09T08:57:41.931Z,2.80
2023-07-09T09:00:17.987Z,2.63
2023-07-09T09:02:52.772Z,2.90
2023-07-09T09:05:23.438Z,2.70
2023-07-09T09:08:04.643Z,2.70
2023-07-09T09:10:41.224Z,3.22
2023-07-09T09:13:13.500Z,2.55
2023-07-09T09:15:48.188Z,2.95
2023-07-09T09:18:23.747Z,3.13
2023-07-09T09:20:58.730Z,2.78
2023-07-09T09:23:33.944Z,2.97
2023-07-09T09:26:13.668Z,3.15
2023-07-09T09:28:42.414Z,2.47
2023-07-09T09:31:13.390Z,3.05
2023-07-09T09:33:44.275Z,2.47
2023-07-09T09:36:18.943Z,2.33
2023-07-09T09:38:47.091Z,2.92
2023-07-09T09:41:17.134Z,2.60
2023-07-09T09:43:46.733Z,2.70
2023-07-09T09:46:22.415Z,2.42
2023-07-09T09:48:52.126Z,3.40
2023-07-09T09:51:20.984Z,2.80
2023-07-09T09:53:53.385Z,2.45
2023-07-09T09:56:29.372Z,2.92
2023-07-09T09:58:59.118Z,3.03
2023-07-09T10:01:32.584Z,3.00
2023-07-09T10:04:02.795Z,2.80
2023-07-09T10:06:38.708Z,2.80
2023-07-09T10:09:17.824Z,3.25
2023-07-09T10:11:50.246Z,2.85
2023-07-09T10:14:30.274Z,2.72
2023-07-09T10:17:06.198Z,2.83
2023-07-09T10:19:41.260Z,3.10
2023-07-09T10:22:16.559Z,3.05
2023-07-09T10:24:55.542Z,2.65
2023-07-09T10:27:31.492Z,2.40
2023-07-09T10:30:22.514Z,2.72
2023-07-09T10:33:07.747Z,2.78
2023-07-09T10:35:40.774Z,2.85
2023-07-09T10:38:24.282Z,2.55
2023-07-09T10:40:56.383Z,3.55
2023-07-09T10:43:39.636Z,2.65
2023-07-09T10:46:14.261Z,2.33
2023-07-09T10:48:47.805Z,2.72
2023-07-09T10:51:24.350Z,2.50
2023-07-09T10:54:00.066Z,2.80
2023-07-09T10:56:31.893Z,3.08
2023-07-09T10:59:07.255Z,2.67
2023-07-09T11:01:40.875Z,2.47
2023-07-09T11:04:17.468Z,2.53
2023-07-09T11:06:50.383Z,2.78
2023-07-09T11:09:25.067Z,2.50
2023-07-09T11:11:57.043Z,3.08
2023-07-09T11:14:30.125Z,2.72
2023-07-09T11:16:59.856Z,2.90
2023-07-09T11:19:29.640Z,2.50
2023-07-09T11:22:05.582Z,2.90
2023-07-09T11:24:37.572Z,2.90
2023-07-09T11:27:19.339Z,2.97
2023-07-09T11:29:49.030Z,2.92
2023-07-09T11:32:23.388Z,2.78
2023-07-09T11:34:53.028Z,2.83
2023-07-09T11:37:27.511Z,2.60
2023-07-09T11:39:55.700Z,2.65
2023-07-09T11:42:30.226Z,2.67
2023-07-09T11:45:06.904Z,2.80
2023-07-09T11:47:39.380Z,3.10
2023-07-09T11:50:23.128Z,3.17
2023-07-09T11:52:56.561Z,2.83
2023-07-09T11:55:29.724Z,3.50
2023-07-09T11:57:59.028Z,2.67
2023-07-09T12:00:30.510Z,2.80
2023-07-09T12:02:59.239Z,2.40
2023-07-09T12:05:31.696Z,2.83
2023-07-09T12:08:01.347Z,2.58
2023-07-09T12:10:34.680Z,2.85
2023-07-09T12:13:04.967Z,2.92
2023-07-09T12:15:33.881Z,3.17
2023-07-09T12:18:06.038Z,2.53
2023-07-09T12:20:38.082Z,2.20
2023-07-09T12:23:13.397Z,2.65
2023-07-09T12:25:41.829Z,2.70
2023-07-09T12:28:16.622Z,3.10
2023-07-09T12:30:48.682Z,3.22
2023-07-09T12:33:19.556Z,2.50
2023-07-09T12:35:51.856Z,2.75
2023-07-09T12:38:22.283Z,2.40
2023-07-09T12:40:51.037Z,2.50
2023-07-09T12:43:25.616Z,2.38
2023-07-09T12:45:54.529Z,2.50
2023-07-09T12:48:26.469Z,2.70
2023-07-09T12:50:59.072Z,2.65
2023-07-09T12:53:29.815Z,2.53
2023-07-09T12:56:00.007Z,3.17
2023-07-09T12:58:30.534Z,3.20
2023-07-09T13:01:00.271Z,2.83
2023-07-09T13:03:30.656Z,2.60
2023-07-09T13:06:02.313Z,2.72
2023-07-09T13:08:32.935Z,2.78
2023-07-09T13:11:03.278Z,3.15
2023-07-09T13:13:31.588Z,3.30
2023-07-09T13:16:03.059Z,2.83
2023-07-09T13:18:32.593Z,2.58
2023-07-09T13:21:10.356Z,3.20
2023-07-09T13:23:38.618Z,3.30
2023-07-09T13:26:06.711Z,3.30
2023-07-09T13:28:34.859Z,3.05
2023-07-09T13:31:12.211Z,2.80
2023-07-09T13:33:40.515Z,3.08
2023-07-09T13:36:11.490Z,3.42
2023-07-09T13:41:15.961Z,2.72
2023-07-09T13:43:46.889Z,2.50
2023-07-09T13:46:15.580Z,2.72
2023-07-09T13:48:46.111Z,2.83
2023-07-09T13:51:19.826Z,3.45
2023-07-09T13:53:48.682Z,2.80
2023-07-09T13:56:16.804Z,3.10
2023-07-09T13:58:44.909Z,3.00
2023-07-09T14:01:15.880Z,3.08
2023-07-09T14:06:15.050Z,2.95
2023-07-09T14:08:44.756Z,2.67
2023-07-09T14:11:13.740Z,2.83
2023-07-09T14:13:42.161Z,3.20
2023-07-09T14:16:12.729Z,3.35
2023-07-09T14:18:41.083Z,3.42
2023-07-09T14:21:14.181Z,3.30
2023-07-09T14:23:42.791Z,3.22
2023-07-09T14:26:12.706Z,3.20
2023-07-09T14:28:40.846Z,3.22
2023-07-09T14:31:21.393Z,3.47
2023-07-09T14:33:49.548Z,3.00
2023-07-09T14:36:18.479Z,3.20
2023-07-09T14:38:47.388Z,3.10
2023-07-09T14:41:23.443Z,3.53
2023-07-09T14:43:51.664Z,2.90
2023-07-09T14:46:19.933Z,3.25
2023-07-09T14:48:48.216Z,3.25
2023-07-09T14:51:17.323Z,3.10
2023-07-09T14:53:45.868Z,3.20
2023-07-09T14:56:15.780Z,2.80
2023-07-09T14:58:45.394Z,3.50
2023-07-09T15:01:14.109Z,3.47
2023-07-09T15:03:42.319Z,2.88
2023-07-09T15:06:10.554Z,3.25
2023-07-09T15:08:39.086Z,2.95
2023-07-09T15:11:07.960Z,3.33
2023-07-09T15:13:38.017Z,3.17
2023-07-09T15:16:08.059Z,3.50
2023-07-09T15:18:37.781Z,3.20
2023-07-09T15:21:07.393Z,3.42
2023-07-09T15:23:41.364Z,3.50
2023-07-09T15:26:15.738Z,3.53
2023-07-09T15:28:44.065Z,3.10
2023-07-09T15:31:14.511Z,2.88
2023-07-09T15:33:42.888Z,3.47
2023-07-09T15:36:13.345Z,3.00
2023-07-09T15:38:43.194Z,3.05
2023-07-09T15:41:14.626Z,3.17
2023-07-09T15:43:44.417Z,3.28
2023-07-09T15:46:19.304Z,3.08
2023-07-09T15:48:48.612Z,3.03
2023-07-09T15:51:16.727Z,3.40
2023-07-09T15:53:44.876Z,3.20
2023-07-09T15:56:16.914Z,3.45
2023-07-09T15:58:47.231Z,3.20
2023-07-09T16:01:17.888Z,3.30
2023-07-09T16:03:48.790Z,2.45
2023-07-09T16:06:17.734Z,3.03
2023-07-09T16:08:46.113Z,2.70
2023-07-09T16:11:17.798Z,3.10
2023-07-09T16:13:46.848Z,3.55
2023-07-09T16:16:19.714Z,3.35
2023-07-09T16:18:50.562Z,3.10
2023-07-09T16:21:25.553Z,2.85
2023-07-09T16:23:54.711Z,2.88
2023-07-09T16:26:24.203Z,3.28
2023-07-09T16:28:52.971Z,3.22
2023-07-09T16:31:22.439Z,3.55
2023-07-09T16:33:50.562Z,3.20
2023-07-09T16:36:20.187Z,2.97
2023-07-09T16:38:48.941Z,3.35
2023-07-09T16:41:18.493Z,3.22
2023-07-09T16:43:46.875Z,3.10
2023-07-09T16:46:19.805Z,3.95
2023-07-09T16:48:51.296Z,3.30
2023-07-09T16:51:19.493Z,3.22
2023-07-09T16:53:47.609Z,3.90
2023-07-09T16:56:16.888Z,2.92
2023-07-09T16:58:45.062Z,3.22
2023-07-09T17:01:13.694Z,3.17
2023-07-09T17:03:41.919Z,3.85
2023-07-09T17:06:11.949Z,3.35
2023-07-09T17:08:40.186Z,3.30
2023-07-09T17:11:10.741Z,3.22
2023-07-09T17:13:39.049Z,2.35
2023-07-09T17:16:07.669Z,2.55
2023-07-09T17:18:35.788Z,2.83
2023-07-09T17:21:05.585Z,2.67
2023-07-09T17:23:36.182Z,2.75
2023-07-09T17:26:04.515Z,2.70
2023-07-09T17:28:33.453Z,3.88
2023-07-09T17:31:02.001Z,2.92
2023-07-09T17:33:32.309Z,2.45
2023-07-09T17:36:01.389Z,2.30
2023-07-09T17:38:37.124Z,2.47
2023-07-09T17:41:06.249Z,2.60
2023-07-09T17:43:34.620Z,2.05
2023-07-09T17:46:03.833Z,2.63
2023-07-09T17:48:34.988Z,2.33
2023-07-09T17:51:03.135Z,2.38
2023-07-09T17:53:32.942Z,2.35
2023-07-09T17:56:03.336Z,2.35
2023-07-09T17:58:36.632Z,2.53
2023-07-09T18:01:06.931Z,2.45
2023-07-09T18:03:35.736Z,1.90
2023-07-09T18:06:04.742Z,2.78
2023-07-09T18:08:33.639Z,2.80
2023-07-09T18:11:03.198Z,2.50
2023-07-09T18:13:32.571Z,2.33
2023-07-09T18:16:01.294Z,2.35
2023-07-09T18:18:29.478Z,2.08
2023-07-09T18:20:57.571Z,2.30
2023-07-09T18:23:26.721Z,2.38
2023-07-09T18:25:55.079Z,2.20
2023-07-09T18:28:33.288Z,2.42
2023-07-09T18:36:01.240Z,2.55
2023-07-09T18:38:29.525Z,2.38
2023-07-09T18:40:57.646Z,2.00
2023-07-09T18:45:58.635Z,2.38
2023-07-09T18:48:29.331Z,2.30
2023-07-09T18:50:59.430Z,2.75
2023-07-09T18:53:28.842Z,2.40
2023-07-09T18:55:57.622Z,2.60
2023-07-09T18:58:29.158Z,2.97
2023-07-09T19:00:59.774Z,2.60
2023-07-09T19:03:33.171Z,2.90
2023-07-09T19:06:01.642Z,2.35
2023-07-09T19:08:35.536Z,2.45
2023-07-09T19:11:04.492Z,2.20
2023-07-09T19:13:34.654Z,2.47
2023-07-09T19:16:05.060Z,2.40
2023-07-09T19:18:36.715Z,2.30
2023-07-09T19:21:06.469Z,2.33
2023-07-09T19:23:34.590Z,2.17
2023-07-09T19:26:03.655Z,2.80
2023-07-09T19:28:33.453Z,2.40
2023-07-09T19:31:01.588Z,2.30
2023-07-09T19:33:36.245Z,2.50
2023-07-09T19:36:04.936Z,2.45
2023-07-09T19:38:33.577Z,2.08
2023-07-09T19:41:01.693Z,2.85
2023-07-09T19:43:29.812Z,2.67
2023-07-09T19:45:59.384Z,2.60
2023-07-09T19:48:28.712Z,2.67
2023-07-09T19:50:56.910Z,2.70
2023-07-09T19:53:28.697Z,2.50
2023-07-09T19:55:58.000Z,2.50
2023-07-09T19:58:26.422Z,2.88
2023-07-09T20:00:55.786Z,2.42
2023-07-09T20:03:27.510Z,3.10
2023-07-09T20:05:56.285Z,2.70
2023-07-09T20:08:25.248Z,2.60
2023-07-09T20:10:55.206Z,2.47
2023-07-09T20:13:26.265Z,3.55
2023-07-09T20:15:54.564Z,3.17
2023-07-09T20:18:23.818Z,2.67
2023-07-09T20:20:55.760Z,2.45
2023-07-09T20:23:25.094Z,2.35
2023-07-09T20:25:54.391Z,2.47
2023-07-09T20:28:24.200Z,2.40
2023-07-09T20:30:54.695Z,2.78
2023-07-09T20:33:23.624Z,2.65
2023-07-09T20:35:53.455Z,2.83
2023-07-09T20:38:23.590Z,2.58
2023-07-09T20:40:52.312Z,2.45
2023-07-09T20:43:23.562Z,2.65
2023-07-09T20:45:51.860Z,2.70
2023-07-09T20:48:20.426Z,3.00
2023-07-09T20:50:49.031Z,2.78
2023-07-09T20:53:20.503Z,2.60
2023-07-09T20:55:49.537Z,2.33
2023-07-09T20:58:19.621Z,2.75
2023-07-09T21:00:49.370Z,2.83
2023-07-09T21:03:19.698Z,2.70
2023-07-09T21:05:49.926Z,2.63
2023-07-09T21:08:21.567Z,2.50
2023-07-09T21:10:50.391Z,2.45
2023-07-09T21:13:20.864Z,2.80
2023-07-09T21:15:53.247Z,2.63
2023-07-09T21:18:23.188Z,2.67
2023-07-09T21:20:51.465Z,3.28
2023-07-09T21:23:24.015Z,2.65
2023-07-09T21:25:52.445Z,2.72
2023-07-09T21:28:20.586Z,2.70
2023-07-09T21:30:49.006Z,2.78
2023-07-09T21:33:18.688Z,2.80
2023-07-09T21:35:47.974Z,2.50
2023-07-09T21:38:21.935Z,2.72
2023-07-09T21:40:52.219Z,3.17
2023-07-09T21:43:20.805Z,2.38
2023-07-09T21:45:54.129Z,2.65
2023-07-09T21:48:25.011Z,2.60
2023-07-09T21:50:53.285Z,2.45
2023-07-09T21:53:39.602Z,2.85
2023-07-09T21:56:13.693Z,2.45
2023-07-09T21:58:42.170Z,2.80
2023-07-09T22:01:16.710Z,3.10
2023-07-09T22:03:44.956Z,2.95
2023-07-09T22:06:13.785Z,2.55
2023-07-09T22:08:48.264Z,3.10
2023-07-09T22:11:24.342Z,3.00
2023-07-09T22:13:55.863Z,2.75
2023-07-09T22:16:24.458Z,2.78
2023-07-09T22:18:52.579Z,2.70
2023-07-09T22:21:20.663Z,3.13
2023-07-09T22:23:50.520Z,3.38
2023-07-09T22:26:20.091Z,2.85
2023-07-09T22:28:48.960Z,3.00
2023-07-09T22:31:17.108Z,2.90
2023-07-09T22:33:45.332Z,2.63
2023-07-09T22:36:14.072Z,3.10
2023-07-09T22:38:42.242Z,2.90
2023-07-09T22:41:11.722Z,2.85
2023-07-09T22:43:39.806Z,2.40
2023-07-09T22:46:12.806Z,2.83
2023-07-09T22:48:44.043Z,3.08
2023-07-09T22:51:12.813Z,3.00
2023-07-09T22:53:40.927Z,3.38
2023-07-09T22:56:11.332Z,2.85
2023-07-09T22:58:39.454Z,3.08
2023-07-09T23:01:15.695Z,2.78
2023-07-09T23:03:47.204Z,3.25
2023-07-09T23:06:19.204Z,3.00
2023-07-09T23:08:48.261Z,2.75
2023-07-09T23:11:20.289Z,3.10
2023-07-09T23:13:49.146Z,3.70
2023-07-09T23:16:19.709Z,2.95
2023-07-09T23:18:48.538Z,3.60
2023-07-09T23:21:20.707Z,3.22
2023-07-09T23:23:49.785Z,3.60
2023-07-09T23:26:19.356Z,3.45
2023-07-09T23:28:47.589Z,2.90
2023-07-09T23:31:32.097Z,2.95
2023-07-09T23:34:01.408Z,3.28
2023-07-09T23:36:29.572Z,3.30
2023-07-09T23:38:57.718Z,3.65
2023-07-09T23:41:31.002Z,3.38
2023-07-09T23:44:01.775Z,3.42
2023-07-09T23:46:32.990Z,3.77
2023-07-09T23:49:10.225Z,3.90
2023-07-09T23:51:39.331Z,12.80
2023-07-09T23:54:10.247Z,18.95
2023-07-09T23:56:39.888Z,5.80
